Time;durP1;ratioP1;P1;durP2;ratioP2;P2;SDS_P1;SDS_P2;PMS_P1;PMS_P2;Temp;Humidity;BMP_temperature;BMP_pressure;BME280_temperature;BME280_humidity;BME280_pressure;Samples;Min_cycle;Max_cycle;Signal;HPM_P1;HPM_P2
2023/03/01 00:01:26;;;;;;;26.80;12.20;;;-2.80;99.90;;;;;;5017127;28;20209;-85
2023/03/01 00:03:52;;;;;;;23.17;12.30;;;-2.80;99.90;;;;;;5029892;28;20205;-83
2023/03/01 00:06:19;;;;;;;19.20;10.15;;;-2.80;99.90;;;;;;5018217;28;20190;-84
2023/03/01 00:08:45;;;;;;;22.30;12.10;;;-2.80;99.90;;;;;;5019699;28;20182;-83
2023/03/01 00:11:21;;;;;;;24.43;12.00;;;-3.00;99.90;;;;;;5011837;28;20196;-84
2023/03/01 00:13:48;;;;;;;19.92;11.55;;;-2.90;99.90;;;;;;5025819;28;20503;-87
2023/03/01 00:16:20;;;;;;;23.92;11.98;;;-3.00;99.90;;;;;;5025613;28;20178;-82
2023/03/01 00:18:46;;;;;;;19.90;11.50;;;-3.00;99.90;;;;;;5013342;28;20288;-85
2023/03/01 00:21:11;;;;;;;21.20;11.37;;;-3.10;99.90;;;;;;5001617;28;20260;-83
2023/03/01 00:23:38;;;;;;;17.90;11.57;;;-3.00;99.90;;;;;;5010005;28;20506;-83
2023/03/01 00:26:08;;;;;;;21.08;10.80;;;-3.00;99.90;;;;;;5021530;28;20189;-85
2023/03/01 00:28:34;;;;;;;26.70;12.38;;;-3.00;99.90;;;;;;5008849;28;20182;-84
2023/03/01 00:31:12;;;;;;;21.13;12.70;;;-3.10;99.90;;;;;;5024031;28;20674;-84
2023/03/01 00:33:37;;;;;;;20.35;9.70;;;-2.90;99.90;;;;;;5022412;28;20456;-84
2023/03/01 00:36:03;;;;;;;23.77;11.17;;;-3.00;99.90;;;;;;5044823;28;20177;-83
2023/03/01 00:38:30;;;;;;;29.88;12.85;;;-3.00;99.90;;;;;;5025810;28;20186;-83
2023/03/01 00:41:02;;;;;;;30.92;13.35;;;-2.90;99.90;;;;;;5009406;28;20232;-87
2023/03/01 00:43:27;;;;;;;18.90;11.38;;;-2.90;99.90;;;;;;5019879;28;20185;-85
2023/03/01 00:45:53;;;;;;;23.53;11.43;;;-2.80;99.90;;;;;;5011806;28;20178;-81
2023/03/01 00:48:18;;;;;;;21.03;12.23;;;-2.90;99.90;;;;;;5008527;28;21202;-84
2023/03/01 00:50:44;;;;;;;21.07;11.33;;;-3.00;99.90;;;;;;5026733;28;20193;-84
2023/03/01 00:53:10;;;;;;;24.70;11.70;;;;;;;;;;5018285;28;20244;-82
2023/03/01 00:55:36;;;;;;;28.33;13.73;;;-3.20;99.90;;;;;;5001126;28;20554;-86
2023/03/01 00:58:02;;;;;;;29.35;12.55;;;-3.30;99.90;;;;;;5019874;28;20448;-85
2023/03/01 01:00:27;;;;;;;33.47;11.87;;;-3.20;99.90;;;;;;5007620;28;20205;-86
2023/03/01 01:02:53;;;;;;;20.63;12.00;;;-3.20;99.90;;;;;;5005634;28;20604;-84
2023/03/01 01:05:20;;;;;;;20.50;12.00;;;-3.10;99.90;;;;;;5009712;28;20563;-85
2023/03/01 01:07:46;;;;;;;23.35;11.20;;;-3.10;99.90;;;;;;5021037;28;20185;-82
2023/03/01 01:10:16;;;;;;;29.33;15.10;;;-3.10;99.90;;;;;;5007106;28;20197;-84
2023/03/01 01:12:43;;;;;;;22.17;13.15;;;-3.10;99.90;;;;;;5029013;28;20440;-81
2023/03/01 01:15:12;;;;;;;21.05;12.13;;;-3.20;99.90;;;;;;5010166;28;20865;-85
2023/03/01 01:17:37;;;;;;;20.80;10.63;;;-3.20;99.90;;;;;;5001158;28;20185;-84
2023/03/01 01:20:03;;;;;;;24.27;12.23;;;-3.20;99.90;;;;;;5033968;28;20871;-84
2023/03/01 01:22:28;;;;;;;24.83;11.67;;;-3.20;99.90;;;;;;5032917;28;20188;-85
2023/03/01 01:24:54;;;;;;;19.70;10.83;;;-3.10;99.90;;;;;;5014470;28;20642;-85
2023/03/01 01:27:19;;;;;;;30.60;12.60;;;-3.20;99.90;;;;;;5010150;28;20186;-83
2023/03/01 01:29:45;;;;;;;20.27;11.00;;;-3.10;99.90;;;;;;5004219;28;20190;-87
2023/03/01 01:32:10;;;;;;;19.77;11.10;;;-3.20;99.90;;;;;;5008176;28;20328;-86
2023/03/01 01:34:36;;;;;;;26.27;13.90;;;-3.20;99.90;;;;;;5025590;28;20664;-86
2023/03/01 01:37:02;;;;;;;27.70;11.70;;;-3.20;99.90;;;;;;5023397;28;20194;-86
2023/03/01 01:39:28;;;;;;;29.20;14.07;;;-3.10;99.90;;;;;;5024382;28;20856;-87
2023/03/01 01:41:54;;;;;;;19.70;11.30;;;;;;;;;;5014433;28;20182;-86
2023/03/01 01:44:23;;;;;;;25.65;12.57;;;-3.20;99.90;;;;;;5004796;28;20445;-83
2023/03/01 01:47:00;;;;;;;29.35;12.98;;;-3.20;99.90;;;;;;5018340;28;20944;-83
2023/03/01 01:49:45;;;;;;;20.35;11.98;;;-3.20;99.90;;;;;;4998760;28;20193;-87
2023/03/01 01:52:13;;;;;;;25.08;12.57;;;-3.20;99.90;;;;;;5006503;28;20336;-83
2023/03/01 01:54:48;;;;;;;20.83;11.32;;;-3.20;99.90;;;;;;5026151;28;20217;-82
2023/03/01 01:57:25;;;;;;;31.80;13.90;;;-3.30;99.90;;;;;;5004732;28;20186;-84
2023/03/01 01:59:54;;;;;;;25.75;12.80;;;-3.30;99.90;;;;;;5006062;28;20205;-84
2023/03/01 02:02:21;;;;;;;25.73;12.10;;;-3.30;99.90;;;;;;5015520;28;20190;-82
2023/03/01 02:04:49;;;;;;;29.10;14.23;;;-3.30;99.90;;;;;;5000272;28;20680;-82
2023/03/01 02:07:22;;;;;;;25.90;13.10;;;-3.40;99.90;;;;;;5038898;28;20170;-80
2023/03/01 02:09:50;;;;;;;27.30;12.90;;;-3.40;99.90;;;;;;5036050;28;20208;-84
2023/03/01 02:12:19;;;;;;;25.88;12.38;;;-3.50;99.90;;;;;;5025009;28;20280;-85
2023/03/01 02:14:44;;;;;;;22.23;12.75;;;-3.50;99.90;;;;;;5012304;28;20198;-82
2023/03/01 02:17:12;;;;;;;21.00;12.40;;;-3.60;99.90;;;;;;4997279;28;21504;-84
2023/03/01 02:19:49;;;;;;;24.45;11.95;;;-3.40;99.90;;;;;;5016132;28;20199;-82
2023/03/01 02:22:23;;;;;;;27.80;13.70;;;-3.40;99.90;;;;;;5005756;28;20178;-81
2023/03/01 02:24:58;;;;;;;28.15;13.93;;;-3.40;99.90;;;;;;5024171;28;20217;-82
2023/03/01 02:27:30;;;;;;;29.67;12.93;;;-3.40;99.90;;;;;;5020523;28;20189;-82
2023/03/01 02:29:55;;;;;;;29.17;11.77;;;-3.40;99.90;;;;;;5009279;28;20209;-86
2023/03/01 02:32:24;;;;;;;21.23;12.40;;;-3.40;99.90;;;;;;5014975;28;20210;-83
2023/03/01 02:34:53;;;;;;;25.95;12.45;;;-3.40;99.90;;;;;;5016944;28;20309;-84
2023/03/01 02:37:24;;;;;;;28.13;13.10;;;-3.50;99.90;;;;;;5015754;28;20189;-84
2023/03/01 02:39:57;;;;;;;33.65;13.57;;;-3.50;99.90;;;;;;5002052;28;21077;-85
2023/03/01 02:42:28;;;;;;;22.88;12.23;;;-3.60;99.90;;;;;;5019407;28;20256;-84
2023/03/01 02:44:54;;;;;;;23.80;11.60;;;-3.70;99.90;;;;;;5001302;28;20201;-82
2023/03/01 02:47:19;;;;;;;28.13;12.20;;;-3.70;99.90;;;;;;5007068;28;20181;-85
2023/03/01 02:49:45;;;;;;;21.80;12.97;;;-3.70;99.90;;;;;;5007637;28;20185;-83
2023/03/01 02:52:20;;;;;;;32.87;13.97;;;-3.80;99.90;;;;;;5007316;28;20201;-85
2023/03/01 02:54:56;;;;;;;24.88;13.00;;;-3.90;99.90;;;;;;5012383;28;20490;-86
2023/03/01 02:57:24;;;;;;;26.27;15.30;;;-3.80;99.90;;;;;;4998723;28;20192;-85
2023/03/01 02:59:51;;;;;;;25.05;11.60;;;-3.80;99.90;;;;;;5027237;28;20238;-86
2023/03/01 03:02:20;;;;;;;22.77;11.60;;;-3.90;99.90;;;;;;5005284;28;20253;-84
2023/03/01 03:04:46;;;;;;;29.52;12.65;;;-3.90;99.90;;;;;;5007511;28;20202;-84
2023/03/01 03:07:12;;;;;;;26.42;13.32;;;-3.90;99.90;;;;;;5007728;28;20708;-83
2023/03/01 03:09:37;;;;;;;25.33;12.57;;;-3.90;99.90;;;;;;5020822;28;20217;-84
2023/03/01 03:12:03;;;;;;;32.30;15.40;;;-3.90;99.90;;;;;;5016627;28;20189;-84
2023/03/01 03:14:29;;;;;;;32.30;13.90;;;-3.80;99.90;;;;;;5024859;28;20205;-84
2023/03/01 03:16:54;;;;;;;30.90;13.90;;;-3.80;99.90;;;;;;5027268;28;20425;-82
2023/03/01 03:19:20;;;;;;;25.53;13.77;;;-3.70;99.90;;;;;;5018687;28;20210;-85
2023/03/01 03:21:46;;;;;;;28.95;14.02;;;-3.60;99.90;;;;;;5011292;28;20202;-84
2023/03/01 03:24:11;;;;;;;26.07;13.50;;;-3.60;99.90;;;;;;5020125;28;20572;-82
2023/03/01 03:26:37;;;;;;;30.70;14.67;;;-3.60;99.90;;;;;;5011506;28;20961;-86
2023/03/01 03:29:03;;;;;;;22.10;12.60;;;-3.60;99.90;;;;;;5008961;28;20184;-85
2023/03/01 03:31:29;;;;;;;26.10;11.83;;;-3.60;99.90;;;;;;5004023;28;20182;-84
2023/03/01 03:33:54;;;;;;;24.13;13.13;;;-3.70;99.90;;;;;;5018946;28;20449;-82
2023/03/01 03:36:23;;;;;;;36.70;14.70;;;-3.70;99.90;;;;;;5016624;28;20270;-83
2023/03/01 03:38:49;;;;;;;23.48;12.07;;;-3.60;99.90;;;;;;5002123;28;20177;-83
2023/03/01 03:41:15;;;;;;;27.90;12.87;;;;;;;;;;5006858;28;20239;-84
2023/03/01 03:43:43;;;;;;;23.60;12.75;;;-3.60;99.90;;;;;;5002600;28;20448;-85
2023/03/01 03:46:10;;;;;;;22.38;12.20;;;-3.60;99.90;;;;;;5012898;28;20178;-85
2023/03/01 03:48:41;;;;;;;26.13;12.23;;;-3.60;99.90;;;;;;5026988;28;20831;-86
2023/03/01 03:51:10;;;;;;;28.95;13.75;;;-3.60;99.90;;;;;;5005776;28;20265;-85
2023/03/01 03:53:35;;;;;;;24.20;12.55;;;-3.60;99.90;;;;;;5005038;28;20194;-84
2023/03/01 03:56:01;;;;;;;29.00;14.60;;;-3.70;99.90;;;;;;5009087;28;20277;-85
2023/03/01 03:58:26;;;;;;;26.90;13.97;;;-3.70;99.90;;;;;;5001247;28;20293;-84
2023/03/01 04:00:58;;;;;;;31.10;15.10;;;-3.70;99.90;;;;;;5008723;28;20254;-86
2023/03/01 04:03:25;;;;;;;28.17;13.57;;;-3.70;99.90;;;;;;5024221;28;20634;-85
2023/03/01 04:05:52;;;;;;;27.67;12.80;;;-3.70;99.90;;;;;;5004268;28;20325;-82
2023/03/01 04:08:21;;;;;;;35.80;15.52;;;-3.80;99.90;;;;;;5008546;28;20189;-85
2023/03/01 04:10:49;;;;;;;29.50;15.63;;;-3.80;99.90;;;;;;5017224;28;20563;-82
2023/03/01 04:13:22;;;;;;;21.92;13.30;;;-3.80;99.90;;;;;;5008563;28;20182;-81
2023/03/01 04:15:52;;;;;;;31.10;14.80;;;-3.80;99.90;;;;;;5007036;28;20516;-82
2023/03/01 04:18:19;;;;;;;31.15;14.40;;;-3.80;99.90;;;;;;4999462;28;20190;-83
2023/03/01 04:20:45;;;;;;;30.27;16.42;;;-3.70;99.90;;;;;;5012193;28;20217;-81
2023/03/01 04:23:15;;;;;;;27.40;14.30;;;-3.80;99.90;;;;;;5016427;28;20193;-84
2023/03/01 04:25:45;;;;;;;36.65;15.85;;;-3.80;99.90;;;;;;5000806;28;20178;-85
2023/03/01 04:28:11;;;;;;;34.53;15.20;;;-3.80;99.90;;;;;;4999942;28;20189;-83
2023/03/01 04:30:38;;;;;;;29.02;14.02;;;-3.90;99.90;;;;;;5010846;28;20189;-83
2023/03/01 04:33:08;;;;;;;24.83;13.10;;;-3.90;99.90;;;;;;5010982;28;20803;-86
2023/03/01 04:35:35;;;;;;;28.70;13.82;;;-3.90;99.90;;;;;;5000647;28;20205;-83
2023/03/01 04:38:00;;;;;;;24.80;13.95;;;-3.90;99.90;;;;;;5007060;28;20198;-86
2023/03/01 04:40:26;;;;;;;32.27;14.50;;;-3.90;99.90;;;;;;5015957;28;20249;-82
2023/03/01 04:42:51;;;;;;;23.73;13.27;;;-3.90;99.90;;;;;;5010640;28;20190;-85
2023/03/01 04:45:17;;;;;;;33.97;14.83;;;-3.90;99.90;;;;;;5004408;28;20204;-85
2023/03/01 04:47:44;;;;;;;26.77;13.30;;;-4.00;99.90;;;;;;5009465;28;20708;-84
2023/03/01 04:50:12;;;;;;;31.40;15.68;;;-4.10;99.90;;;;;;5013830;28;20186;-81
2023/03/01 04:52:38;;;;;;;28.02;15.00;;;-4.10;99.90;;;;;;5021299;28;20213;-81
2023/03/01 04:55:05;;;;;;;29.57;14.70;;;-4.00;99.90;;;;;;5000070;28;20237;-81
2023/03/01 04:57:31;;;;;;;35.25;17.42;;;;;;;;;;5017344;28;20303;-83
2023/03/01 04:59:57;;;;;;;44.80;17.83;;;-3.80;99.90;;;;;;5018125;28;20216;-82
2023/03/01 05:02:22;;;;;;;32.23;16.60;;;-3.80;99.90;;;;;;4995377;28;20179;-80
2023/03/01 05:04:48;;;;;;;37.67;15.60;;;-3.70;99.90;;;;;;5005375;28;20472;-83
2023/03/01 05:07:19;;;;;;;37.55;18.98;;;;;;;;;;5005668;28;20426;-82
2023/03/01 05:09:45;;;;;;;27.08;16.50;;;-3.50;99.90;;;;;;5005480;28;20189;-83
2023/03/01 05:12:10;;;;;;;35.72;19.60;;;-3.40;99.90;;;;;;5007681;28;20510;-86
2023/03/01 05:14:38;;;;;;;31.87;18.27;;;-3.40;99.90;;;;;;5000713;28;20306;-83
2023/03/01 05:17:04;;;;;;;33.58;16.65;;;-3.30;99.90;;;;;;5007046;28;20178;-82
2023/03/01 05:19:30;;;;;;;33.07;15.80;;;-3.30;99.90;;;;;;5011882;28;20339;-82
2023/03/01 05:22:05;;;;;;;34.30;17.05;;;-3.20;99.90;;;;;;5018049;28;20838;-79
2023/03/01 05:24:33;;;;;;;24.23;14.95;;;-3.20;99.90;;;;;;5014548;28;20229;-83
2023/03/01 05:27:00;;;;;;;32.80;14.90;;;-3.30;99.90;;;;;;5003524;28;20204;-83
2023/03/01 05:29:27;;;;;;;30.77;17.55;;;-3.40;99.90;;;;;;4997335;28;20194;-84
2023/03/01 05:32:03;;;;;;;28.05;15.73;;;-3.50;99.90;;;;;;5003141;28;20186;-83
2023/03/01 05:34:31;;;;;;;30.92;15.35;;;-3.60;99.90;;;;;;4997100;28;20197;-85
2023/03/01 05:36:57;;;;;;;30.58;14.70;;;-3.60;99.90;;;;;;5009088;28;20182;-82
2023/03/01 05:39:25;;;;;;;38.88;16.38;;;-3.70;99.90;;;;;;4996804;28;20282;-85
2023/03/01 05:41:59;;;;;;;33.83;16.48;;;-3.60;99.90;;;;;;5013753;28;20634;-84
2023/03/01 05:44:25;;;;;;;33.13;16.17;;;-3.60;99.90;;;;;;5000004;28;20270;-84
2023/03/01 05:46:51;;;;;;;30.38;15.13;;;-3.70;99.90;;;;;;5001791;28;20169;-84
2023/03/01 05:49:17;;;;;;;37.50;17.57;;;-3.70;99.90;;;;;;5019070;28;20195;-84
2023/03/01 05:51:47;;;;;;;35.43;15.90;;;-3.70;99.90;;;;;;5003199;28;20552;-82
2023/03/01 05:54:12;;;;;;;36.60;17.80;;;-3.80;99.90;;;;;;5007504;28;20762;-84
2023/03/01 05:56:38;;;;;;;35.97;16.90;;;-3.80;99.90;;;;;;5003016;28;20194;-81
2023/03/01 05:59:07;;;;;;;28.03;14.70;;;-3.90;99.90;;;;;;5012123;28;20208;-81
2023/03/01 06:01:34;;;;;;;35.90;14.90;;;-3.90;99.90;;;;;;5002736;28;20245;-80
2023/03/01 06:04:00;;;;;;;40.83;16.90;;;-4.00;99.90;;;;;;5010865;28;20304;-81
2023/03/01 06:06:26;;;;;;;36.08;17.02;;;-4.00;99.90;;;;;;5029066;28;20227;-82
2023/03/01 06:08:53;;;;;;;33.67;18.40;;;-3.30;99.90;;;;;;5015481;28;20183;-83
2023/03/01 06:11:19;;;;;;;38.38;17.70;;;-4.00;99.90;;;;;;4998279;28;20323;-84
2023/03/01 06:13:46;;;;;;;35.28;17.70;;;-3.90;99.90;;;;;;5003929;28;20509;-78
2023/03/01 06:16:12;;;;;;;37.47;17.08;;;-3.90;99.90;;;;;;4996746;28;20178;-84
2023/03/01 06:18:38;;;;;;;37.92;16.92;;;-3.90;99.90;;;;;;5003595;28;20680;-83
2023/03/01 06:21:05;;;;;;;39.25;18.35;;;-3.90;99.90;;;;;;5025158;28;20210;-82
2023/03/01 06:23:31;;;;;;;36.25;18.25;;;-3.80;99.90;;;;;;5010202;28;20178;-85
2023/03/01 06:25:56;;;;;;;36.40;19.73;;;-3.80;99.90;;;;;;5017356;28;20181;-82
2023/03/01 06:28:22;;;;;;;39.37;19.87;;;-3.70;99.90;;;;;;5003591;28;20432;-86
2023/03/01 06:30:49;;;;;;;33.20;18.30;;;-3.70;99.90;;;;;;5007798;28;20182;-82
2023/03/01 06:33:14;;;;;;;33.38;17.58;;;-3.60;99.90;;;;;;5022893;28;20697;-83
2023/03/01 06:35:40;;;;;;;35.67;16.63;;;-3.40;99.90;;;;;;5023799;28;20244;-81
2023/03/01 06:38:05;;;;;;;37.20;17.13;;;-3.20;99.90;;;;;;5029271;28;20992;-88
2023/03/01 06:40:32;;;;;;;38.20;16.90;;;-3.00;99.90;;;;;;5013855;28;20207;-82
2023/03/01 06:42:58;;;;;;;29.83;15.85;;;-2.90;99.90;;;;;;5020821;28;20436;-83
2023/03/01 06:45:24;;;;;;;36.47;18.15;;;-3.00;99.90;;;;;;5019670;28;20205;-83
2023/03/01 06:47:49;;;;;;;33.78;16.50;;;-2.90;99.90;;;;;;5022748;28;20171;-85
2023/03/01 06:50:16;;;;;;;39.50;16.67;;;-2.70;99.90;;;;;;5035288;28;20176;-80
2023/03/01 06:52:44;;;;;;;32.35;18.05;;;-2.60;99.90;;;;;;5027187;28;20274;-84
2023/03/01 06:55:10;;;;;;;45.22;19.80;;;-2.10;99.90;;;;;;5010384;28;20222;-84
2023/03/01 06:57:36;;;;;;;42.88;18.90;;;-1.00;99.90;;;;;;5005028;28;20205;-85
2023/03/01 07:00:03;;;;;;;35.10;17.83;;;0.30;99.90;;;;;;5013567;28;20252;-83
2023/03/01 07:02:28;;;;;;;31.42;15.73;;;1.70;99.90;;;;;;5010669;28;20221;-83
2023/03/01 07:04:54;;;;;;;31.70;15.40;;;2.80;99.90;;;;;;5028685;28;20825;-85
2023/03/01 07:07:19;;;;;;;25.40;14.90;;;3.60;99.90;;;;;;5011597;28;20208;-81
2023/03/01 07:09:46;;;;;;;26.20;16.00;;;4.90;99.90;;;;;;5017671;28;20186;-84
2023/03/01 07:12:11;;;;;;;25.45;14.00;;;6.30;99.90;;;;;;5011192;28;20186;-84
2023/03/01 07:14:37;;;;;;;29.67;16.03;;;7.60;99.90;;;;;;5018162;28;20251;-85
2023/03/01 07:17:02;;;;;;;23.03;15.87;;;8.50;99.90;;;;;;5029628;28;20196;-82
2023/03/01 07:19:28;;;;;;;28.03;15.70;;;9.10;99.90;;;;;;5034808;28;20584;-84
2023/03/01 07:21:55;;;;;;;23.23;16.60;;;9.10;99.90;;;;;;5004528;28;20186;-81
2023/03/01 07:24:21;;;;;;;27.48;15.90;;;9.10;99.90;;;;;;5013860;28;20224;-82
2023/03/01 07:26:50;;;;;;;27.73;15.83;;;10.20;99.90;;;;;;5012180;28;20666;-85
2023/03/01 07:29:16;;;;;;;25.00;15.13;;;11.20;97.40;;;;;;5001815;28;20182;-82
2023/03/01 07:31:42;;;;;;;28.38;15.95;;;12.00;94.70;;;;;;5003521;28;20715;-82
2023/03/01 07:34:07;;;;;;;23.63;15.70;;;12.40;90.80;;;;;;5002235;28;20202;-84
2023/03/01 07:36:33;;;;;;;29.70;17.00;;;12.80;89.40;;;;;;5024986;28;20185;-83
2023/03/01 07:38:58;;;;;;;27.70;15.50;;;12.90;84.70;;;;;;5026457;28;20669;-84
2023/03/01 07:41:24;;;;;;;29.27;17.93;;;13.10;77.80;;;;;;5008319;28;20191;-82
2023/03/01 07:43:50;;;;;;;25.07;15.37;;;13.30;79.30;;;;;;5008698;28;20229;-83
2023/03/01 07:46:15;;;;;;;26.30;15.73;;;13.90;77.60;;;;;;5017516;28;20186;-85
2023/03/01 07:48:41;;;;;;;26.67;16.57;;;14.80;75.20;;;;;;5018926;28;20186;-82
2023/03/01 07:51:07;;;;;;;25.17;15.37;;;15.20;69.40;;;;;;5010591;28;20193;-81
2023/03/01 07:53:33;;;;;;;25.30;15.52;;;15.10;66.60;;;;;;5026307;28;20239;-82
2023/03/01 07:56:08;;;;;;;28.08;17.15;;;14.40;62.10;;;;;;5028331;28;20665;-83
2023/03/01 07:58:35;;;;;;;27.33;16.63;;;13.40;63.60;;;;;;5014158;28;20203;-82
2023/03/01 08:01:06;;;;;;;24.70;14.27;;;12.30;63.60;;;;;;5007722;28;20202;-82
2023/03/01 08:03:32;;;;;;;27.90;15.52;;;12.00;66.10;;;;;;5008469;28;20661;-83
2023/03/01 08:06:05;;;;;;;25.67;16.05;;;11.60;66.40;;;;;;5019510;28;20178;-83
2023/03/01 08:08:31;;;;;;;23.75;15.38;;;11.50;68.70;;;;;;5010240;28;20627;-83
2023/03/01 08:10:59;;;;;;;99.90;20.43;;;11.30;68.20;;;;;;5027762;28;20315;-81
2023/03/01 08:13:25;;;;;;;25.85;14.05;;;12.00;71.20;;;;;;5016667;28;20193;-82
2023/03/01 08:15:51;;;;;;;24.13;14.30;;;12.40;69.30;;;;;;5015804;28;20194;-83
2023/03/01 08:18:18;;;;;;;27.37;15.47;;;13.00;65.70;;;;;;5002623;28;20286;-84
2023/03/01 08:20:44;;;;;;;27.50;15.75;;;12.10;64.00;;;;;;5004725;28;20492;-83
2023/03/01 08:23:10;;;;;;;26.23;15.40;;;11.40;66.80;;;;;;5023641;28;21237;-83
2023/03/01 08:25:36;;;;;;;20.83;13.43;;;10.60;65.50;;;;;;5002549;28;20499;-81
2023/03/01 08:28:02;;;;;;;25.37;15.93;;;10.30;67.30;;;;;;5000703;28;20436;-82
2023/03/01 08:30:27;;;;;;;25.87;15.30;;;10.50;69.80;;;;;;5007580;28;20437;-83
2023/03/01 08:32:53;;;;;;;23.37;15.20;;;10.60;69.10;;;;;;5016194;28;20586;-82
2023/03/01 08:35:19;;;;;;;21.27;12.80;;;10.70;69.40;;;;;;5024414;28;20236;-86
2023/03/01 08:37:45;;;;;;;25.60;14.07;;;10.80;70.40;;;;;;5007616;28;20305;-84
2023/03/01 08:40:13;;;;;;;25.67;14.30;;;11.10;68.90;;;;;;5002259;28;20300;-82
2023/03/01 08:42:39;;;;;;;26.98;16.08;;;9.90;68.70;;;;;;5010936;28;20285;-82
2023/03/01 08:45:05;;;;;;;24.90;16.25;;;9.70;70.70;;;;;;5014367;28;20213;-82
2023/03/01 08:47:33;;;;;;;22.05;15.00;;;9.70;72.40;;;;;;5000452;28;20639;-79
2023/03/01 08:49:59;;;;;;;22.88;13.38;;;9.70;73.30;;;;;;5029276;28;20188;-80
2023/03/01 08:52:24;;;;;;;26.25;14.02;;;10.10;72.00;;;;;;5019728;28;20197;-82
2023/03/01 08:54:50;;;;;;;28.50;14.73;;;10.50;69.90;;;;;;5029047;28;20210;-80
2023/03/01 08:57:15;;;;;;;23.40;14.60;;;11.20;71.20;;;;;;5035566;28;20213;-85
2023/03/01 08:59:41;;;;;;;23.17;14.23;;;11.70;68.70;;;;;;5009675;28;20201;-83
2023/03/01 09:02:13;;;;;;;25.77;15.07;;;11.80;69.70;;;;;;5018599;28;20566;-85
2023/03/01 09:04:39;;;;;;;25.85;15.48;;;11.90;69.80;;;;;;5019607;28;20234;-82
2023/03/01 09:07:04;;;;;;;22.03;14.60;;;11.80;66.50;;;;;;5026879;28;20216;-83
2023/03/01 09:09:30;;;;;;;31.87;16.50;;;11.10;67.30;;;;;;5022722;28;20445;-83
2023/03/01 09:11:55;;;;;;;25.50;14.80;;;10.40;69.60;;;;;;5012350;28;20243;-84
2023/03/01 09:14:21;;;;;;;22.80;15.67;;;10.10;71.50;;;;;;5025245;28;20220;-81
2023/03/01 09:16:47;;;;;;;24.67;15.90;;;10.00;70.20;;;;;;5027038;28;20166;-80
2023/03/01 09:19:13;;;;;;;26.80;14.67;;;9.80;71.10;;;;;;5033785;28;20213;-82
2023/03/01 09:21:39;;;;;;;25.33;14.70;;;9.30;72.80;;;;;;5021551;28;20582;-84
2023/03/01 09:24:04;;;;;;;28.13;15.77;;;9.20;74.10;;;;;;5003818;28;20488;-82
2023/03/01 09:26:30;;;;;;;26.80;14.73;;;9.20;73.90;;;;;;5026447;28;20443;-82
2023/03/01 09:28:56;;;;;;;26.07;16.47;;;9.30;74.80;;;;;;5028233;28;20443;-83
2023/03/01 09:31:24;;;;;;;26.15;16.83;;;9.20;74.10;;;;;;5020268;28;20716;-82
2023/03/01 09:33:52;;;;;;;23.73;14.85;;;9.30;74.10;;;;;;5001340;28;20272;-83
2023/03/01 09:36:21;;;;;;;24.27;14.77;;;9.10;74.40;;;;;;5018856;28;20618;-84
2023/03/01 09:38:47;;;;;;;24.23;14.85;;;9.10;75.50;;;;;;5021728;28;20182;-83
2023/03/01 09:41:43;;;;;;;25.42;14.90;;;9.50;76.20;;;;;;5004271;28;20186;-83
2023/03/01 09:44:54;;;;;;;22.85;14.50;;;9.40;75.90;;;;;;5030016;28;20197;-86
2023/03/01 09:47:26;;;;;;;28.35;14.88;;;9.00;75.10;;;;;;4987666;28;20190;-83
2023/03/01 09:50:16;;;;;;;28.27;16.00;;;9.30;76.00;;;;;;5024064;28;20244;-84
2023/03/01 09:52:46;;;;;;;26.45;13.70;;;9.10;77.90;;;;;;5021350;28;20182;-83
2023/03/01 09:55:27;;;;;;;23.35;15.05;;;9.00;76.50;;;;;;5002362;28;20245;-84
2023/03/01 09:57:55;;;;;;;29.92;14.90;;;8.70;78.10;;;;;;5001352;28;20197;-81
2023/03/01 10:00:31;;;;;;;32.42;14.35;;;8.50;78.60;;;;;;5019280;28;20201;-82
2023/03/01 10:03:13;;;;;;;26.33;15.65;;;8.80;79.00;;;;;;5018465;28;20177;-80
2023/03/01 10:05:49;;;;;;;25.83;15.40;;;8.60;77.20;;;;;;5013019;28;20686;-84
2023/03/01 10:08:26;;;;;;;33.85;15.60;;;8.30;78.50;;;;;;5018361;28;20177;-79
2023/03/01 10:10:53;;;;;;;29.13;15.50;;;7.60;79.50;;;;;;5017515;28;20294;-85
2023/03/01 10:13:36;;;;;;;29.10;15.25;;;6.40;84.70;;;;;;5021922;28;20181;-83
2023/03/01 10:16:24;;;;;;;30.35;16.08;;;6.40;85.40;;;;;;5022164;28;20239;-83
2023/03/01 10:18:57;;;;;;;24.85;14.90;;;5.80;87.10;;;;;;5009332;28;20217;-80
2023/03/01 10:21:23;;;;;;;33.80;16.65;;;5.50;89.60;;;;;;5047303;28;20186;-79
2023/03/01 10:23:53;;;;;;;30.87;15.50;;;5.30;91.30;;;;;;5029114;28;20204;-83
2023/03/01 10:26:57;;;;;;;33.97;16.85;;;5.10;91.30;;;;;;5048102;28;20170;-80
2023/03/01 10:29:41;;;;;;;30.73;14.43;;;5.10;92.70;;;;;;5036855;28;20169;-84
2023/03/01 10:32:09;;;;;;;30.80;15.18;;;5.30;93.30;;;;;;5044866;28;20530;-82
2023/03/01 10:34:36;;;;;;;30.85;17.55;;;5.20;92.50;;;;;;5047355;28;20220;-83
2023/03/01 10:37:21;;;;;;;38.83;17.27;;;5.30;93.30;;;;;;5035406;28;20220;-83
2023/03/01 10:40:09;;;;;;;30.13;16.15;;;5.40;93.40;;;;;;5016591;28;20205;-82
2023/03/01 10:42:46;;;;;;;25.33;15.55;;;5.30;93.70;;;;;;5021393;28;20186;-87
2023/03/01 10:45:33;;;;;;;34.92;17.77;;;5.50;94.40;;;;;;5016620;28;20254;-84
2023/03/01 10:48:15;;;;;;;26.33;15.68;;;5.40;94.10;;;;;;5021284;28;20185;-84
2023/03/01 10:50:46;;;;;;;34.33;16.95;;;5.40;94.20;;;;;;5009548;28;20189;-84
2023/03/01 10:53:28;;;;;;;35.92;17.17;;;5.40;94.10;;;;;;5022535;28;20189;-85
2023/03/01 10:56:04;;;;;;;27.42;14.63;;;5.40;94.70;;;;;;5026758;28;20194;-84
2023/03/01 10:58:30;;;;;;;30.02;16.00;;;5.50;94.50;;;;;;5025405;28;20192;-83
2023/03/01 11:00:58;;;;;;;30.90;16.48;;;5.50;94.90;;;;;;5025845;28;20202;-83
2023/03/01 11:03:27;;;;;;;43.10;21.40;;;5.50;94.50;;;;;;5031708;28;20179;-85
2023/03/01 11:05:59;;;;;;;37.90;19.52;;;5.60;95.00;;;;;;5029990;28;20182;-81
2023/03/01 11:08:42;;;;;;;30.67;15.57;;;5.60;94.90;;;;;;5006290;28;20190;-87
2023/03/01 11:11:21;;;;;;;30.73;17.33;;;5.50;94.90;;;;;;5013374;28;20178;-83
2023/03/01 11:13:55;;;;;;;22.95;13.80;;;5.60;95.70;;;;;;5021005;28;20206;-82
2023/03/01 11:16:36;;;;;;;33.33;17.20;;;5.90;96.60;;;;;;5001871;28;20224;-83
2023/03/01 11:19:19;;;;;;;41.17;15.85;;;6.00;95.40;;;;;;5006347;28;20182;-82
2023/03/01 11:22:12;;;;;;;30.38;15.98;;;6.20;95.90;;;;;;5012014;28;20190;-82
2023/03/01 11:24:50;;;;;;;21.85;13.95;;;6.20;95.90;;;;;;5022378;28;20204;-83
2023/03/01 11:27:22;;;;;;;32.00;14.80;;;6.20;93.90;;;;;;5020773;28;20185;-81
2023/03/01 11:30:36;;;;;;;25.48;14.82;;;6.00;94.60;;;;;;5019723;28;20182;-84
2023/03/01 11:33:04;;;;;;;27.20;16.08;;;6.10;94.70;;;;;;4989289;28;20670;-82
2023/03/01 11:35:33;;;;;;;26.85;16.40;;;6.10;94.90;;;;;;5028595;28;20747;-83
2023/03/01 11:38:12;;;;;;;27.13;15.60;;;6.10;94.70;;;;;;5021075;28;20281;-83
2023/03/01 11:40:48;;;;;;;29.45;15.70;;;6.30;94.70;;;;;;5038320;28;20201;-82
2023/03/01 11:43:27;;;;;;;25.80;14.20;;;6.40;94.90;;;;;;5022436;28;20189;-81
2023/03/01 11:46:21;;;;;;;25.48;15.18;;;6.30;94.20;;;;;;5006164;28;20765;-82
2023/03/01 11:49:01;;;;;;;29.23;15.07;;;6.40;94.30;;;;;;5013524;28;20201;-80
2023/03/01 11:52:03;;;;;;;31.95;16.42;;;6.40;94.90;;;;;;5037336;28;20182;-83
2023/03/01 11:54:53;;;;;;;30.10;15.80;;;6.70;95.40;;;;;;5024660;28;20189;-80
2023/03/01 11:57:44;;;;;;;21.65;13.77;;;6.70;94.90;;;;;;5053383;28;20190;-79
2023/03/01 12:00:33;;;;;;;26.65;16.17;;;6.70;94.00;;;;;;5026690;28;20223;-82
2023/03/01 12:03:24;;;;;;;30.63;16.60;;;6.70;94.00;;;;;;5042194;28;20249;-82
2023/03/01 12:06:23;;;;;;;29.92;18.70;;;6.50;93.90;;;;;;5007263;28;20547;-84
2023/03/01 12:09:12;;;;;;;25.05;14.07;;;6.50;94.20;;;;;;5027432;28;20194;-83
2023/03/01 12:12:04;;;;;;;28.75;15.45;;;6.60;94.20;;;;;;5017191;28;20201;-86
2023/03/01 12:14:41;;;;;;;29.02;15.95;;;6.90;94.80;;;;;;5022612;28;20241;-82
2023/03/01 12:17:19;;;;;;;28.88;15.75;;;7.00;94.70;;;;;;5008566;28;20194;-80
2023/03/01 12:20:17;;;;;;;31.63;16.33;;;7.10;94.20;;;;;;5024856;28;20217;-83
2023/03/01 12:23:10;;;;;;;25.55;14.60;;;7.10;93.90;;;;;;5024920;28;20291;-85
2023/03/01 12:26:13;;;;;;;24.42;16.58;;;7.10;93.90;;;;;;5028401;28;20205;-83
2023/03/01 12:29:10;;;;;;;25.02;13.80;;;7.00;93.90;;;;;;5026606;28;20190;-82
2023/03/01 12:31:54;;;;;;;29.13;15.95;;;6.90;94.00;;;;;;5002234;28;20186;-84
2023/03/01 12:34:49;;;;;;;30.02;15.02;;;6.60;94.50;;;;;;5018300;28;20278;-82
2023/03/01 12:37:20;;;;;;;22.33;14.00;;;6.70;95.60;;;;;;5003531;28;20187;-82
2023/03/01 12:40:16;;;;;;;30.25;15.60;;;6.80;95.10;;;;;;5026613;28;20281;-83
2023/03/01 12:43:08;;;;;;;29.92;14.70;;;6.70;94.80;;;;;;4999914;28;20669;-81
2023/03/01 12:45:42;;;;;;;22.08;12.52;;;6.60;94.80;;;;;;5013839;28;20259;-86
2023/03/01 12:48:42;;;;;;;31.65;16.00;;;6.50;94.80;;;;;;5003670;28;20178;-80